sensor_id;sensor_type;location;lat;lon;timestamp;pressure;altitude;pressure_sealevel;temperature;humidity
78206;BME280;67480;48.920;12.880;2023-09-18T00:02:23;96743.28;;;17.14;54.55
78206;BME280;67480;48.920;12.880;2023-09-18T00:04:49;96751.56;;;17.13;54.00
78206;BME280;67480;48.920;12.880;2023-09-18T00:07:14;96743.28;;;17.14;53.65
78206;BME280;67480;48.920;12.880;2023-09-18T00:09:39;96745.72;;;17.11;54.62
78206;BME280;67480;48.920;12.880;2023-09-18T00:12:05;96739.91;;;17.09;55.09
78206;BME280;67480;48.920;12.880;2023-09-18T00:14:31;96730.41;;;17.03;55.08
78206;BME280;67480;48.920;12.880;2023-09-18T00:16:57;96727.47;;;17.04;55.20
78206;BME280;67480;48.920;12.880;2023-09-18T00:19:23;96728.53;;;17.03;55.43
78206;BME280;67480;48.920;12.880;2023-09-18T00:21:48;96732.53;;;17.01;54.87
78206;BME280;67480;48.920;12.880;2023-09-18T00:24:14;96727.00;;;16.97;55.46
78206;BME280;67480;48.920;12.880;2023-09-18T00:26:39;96716.16;;;16.93;54.84
78206;BME280;67480;48.920;12.880;2023-09-18T00:29:05;96705.53;;;16.93;55.15
78206;BME280;67480;48.920;12.880;2023-09-18T00:31:30;96705.22;;;16.95;55.05
78206;BME280;67480;48.920;12.880;2023-09-18T00:33:55;96705.47;;;16.98;54.53
78206;BME280;67480;48.920;12.880;2023-09-18T00:36:21;96701.78;;;16.94;54.96
78206;BME280;67480;48.920;12.880;2023-09-18T00:38:46;96708.13;;;16.98;54.72
78206;BME280;67480;48.920;12.880;2023-09-18T00:41:12;96704.16;;;16.96;54.41
78206;BME280;67480;48.920;12.880;2023-09-18T00:43:37;96695.09;;;16.97;54.57
78206;BME280;67480;48.920;12.880;2023-09-18T00:46:03;96688.22;;;16.96;54.45
78206;BME280;67480;48.920;12.880;2023-09-18T00:48:29;96687.63;;;16.99;54.36
78206;BME280;67480;48.920;12.880;2023-09-18T00:50:55;96680.22;;;16.96;54.37
78206;BME280;67480;48.920;12.880;2023-09-18T00:53:23;96679.94;;;16.97;54.12
78206;BME280;67480;48.920;12.880;2023-09-18T00:55:53;96678.56;;;17.00;53.81
78206;BME280;67480;48.920;12.880;2023-09-18T00:58:22;96681.53;;;16.98;54.67
78206;BME280;67480;48.920;12.880;2023-09-18T01:00:48;96676.69;;;17.01;53.89
78206;BME280;67480;48.920;12.880;2023-09-18T01:03:16;96662.97;;;16.93;53.92
78206;BME280;67480;48.920;12.880;2023-09-18T01:05:44;96653.34;;;16.97;53.97
78206;BME280;67480;48.920;12.880;2023-09-18T01:08:09;96658.66;;;16.97;54.34
78206;BME280;67480;48.920;12.880;2023-09-18T01:11:10;96661.81;;;16.99;54.13
78206;BME280;67480;48.920;12.880;2023-09-18T01:16:36;96649.03;;;17.02;54.28
78206;BME280;67480;48.920;12.880;2023-09-18T01:19:01;96636.31;;;16.98;54.70
78206;BME280;67480;48.920;12.880;2023-09-18T01:21:28;96638.16;;;16.98;55.16
78206;BME280;67480;48.920;12.880;2023-09-18T01:23:54;96634.13;;;17.01;55.30
78206;BME280;67480;48.920;12.880;2023-09-18T01:26:19;96627.81;;;16.96;55.36
78206;BME280;67480;48.920;12.880;2023-09-18T01:28:44;96628.88;;;16.95;55.84
78206;BME280;67480;48.920;12.880;2023-09-18T01:31:10;96628.88;;;16.95;56.06
78206;BME280;67480;48.920;12.880;2023-09-18T01:33:37;96633.66;;;16.98;56.27
78206;BME280;67480;48.920;12.880;2023-09-18T01:36:05;96628.88;;;16.95;56.41
78206;BME280;67480;48.920;12.880;2023-09-18T01:38:33;96629.13;;;16.99;56.47
78206;BME280;67480;48.920;12.880;2023-09-18T01:40:59;96624.13;;;16.92;56.94
78206;BME280;67480;48.920;12.880;2023-09-18T01:43:25;96629.41;;;16.97;56.75
78206;BME280;67480;48.920;12.880;2023-09-18T01:45:50;96613.50;;;16.92;56.74
78206;BME280;67480;48.920;12.880;2023-09-18T01:48:16;96620.41;;;16.93;56.89
78206;BME280;67480;48.920;12.880;2023-09-18T01:50:42;96625.75;;;16.93;57.07
78206;BME280;67480;48.920;12.880;2023-09-18T01:53:07;96616.69;;;16.94;57.29
78206;BME280;67480;48.920;12.880;2023-09-18T01:55:33;96634.44;;;16.99;57.41
78206;BME280;67480;48.920;12.880;2023-09-18T01:57:58;96628.88;;;16.95;57.62
78206;BME280;67480;48.920;12.880;2023-09-18T02:00:24;96632.06;;;16.97;57.51
78206;BME280;67480;48.920;12.880;2023-09-18T02:02:49;96640.53;;;16.99;57.36
78206;BME280;67480;48.920;12.880;2023-09-18T02:05:15;96635.28;;;16.94;58.21
78206;BME280;67480;48.920;12.880;2023-09-18T02:07:40;96625.28;;;16.86;58.35
78206;BME280;67480;48.920;12.880;2023-09-18T02:10:06;96624.28;;;16.82;58.98
78206;BME280;67480;48.920;12.880;2023-09-18T02:12:31;96610.03;;;16.73;59.15
78206;BME280;67480;48.920;12.880;2023-09-18T02:14:57;96610.03;;;16.73;59.40
78206;BME280;67480;48.920;12.880;2023-09-18T02:17:23;96610.34;;;16.71;59.42
78206;BME280;67480;48.920;12.880;2023-09-18T02:19:49;96609.25;;;16.72;59.26
78206;BME280;67480;48.920;12.880;2023-09-18T02:22:15;96601.56;;;16.71;59.38
78206;BME280;67480;48.920;12.880;2023-09-18T02:24:40;96602.88;;;16.73;58.89
78206;BME280;67480;48.920;12.880;2023-09-18T02:27:06;96605.53;;;16.73;58.88
78206;BME280;67480;48.920;12.880;2023-09-18T02:29:31;96604.38;;;16.80;59.00
78206;BME280;67480;48.920;12.880;2023-09-18T02:31:56;96600.94;;;16.79;59.06
78206;BME280;67480;48.920;12.880;2023-09-18T02:34:22;96592.50;;;16.72;59.43
78206;BME280;67480;48.920;12.880;2023-09-18T02:36:47;96597.31;;;16.70;59.39
78206;BME280;67480;48.920;12.880;2023-09-18T02:39:13;96598.41;;;16.69;59.63
78206;BME280;67480;48.920;12.880;2023-09-18T02:41:38;96598.66;;;16.67;59.39
78206;BME280;67480;48.920;12.880;2023-09-18T02:44:03;96586.78;;;16.65;59.78
78206;BME280;67480;48.920;12.880;2023-09-18T02:46:29;96585.75;;;16.61;59.79
78206;BME280;67480;48.920;12.880;2023-09-18T02:48:55;96587.63;;;16.60;59.56
78206;BME280;67480;48.920;12.880;2023-09-18T02:51:22;96581.56;;;16.54;60.35
78206;BME280;67480;48.920;12.880;2023-09-18T02:53:47;96580.00;;;16.53;59.72
78206;BME280;67480;48.920;12.880;2023-09-18T02:56:12;96578.84;;;16.60;59.82
78206;BME280;67480;48.920;12.880;2023-09-18T02:58:38;96568.50;;;16.58;59.89
78206;BME280;67480;48.920;12.880;2023-09-18T03:01:06;96579.34;;;16.62;59.82
78206;BME280;67480;48.920;12.880;2023-09-18T03:03:33;96579.84;;;16.64;59.72
78206;BME280;67480;48.920;12.880;2023-09-18T03:06:02;96570.81;;;16.65;59.82
78206;BME280;67480;48.920;12.880;2023-09-18T03:08:28;96582.56;;;16.59;59.66
78206;BME280;67480;48.920;12.880;2023-09-18T03:10:54;96578.34;;;16.58;59.77
78206;BME280;67480;48.920;12.880;2023-09-18T03:13:19;96575.63;;;16.63;59.55
78206;BME280;67480;48.920;12.880;2023-09-18T03:15:45;96578.28;;;16.63;59.27
78206;BME280;67480;48.920;12.880;2023-09-18T03:18:13;96586.47;;;16.66;59.92
78206;BME280;67480;48.920;12.880;2023-09-18T03:20:39;96580.16;;;16.62;59.74
78206;BME280;67480;48.920;12.880;2023-09-18T03:23:04;96578.84;;;16.60;59.65
78206;BME280;67480;48.920;12.880;2023-09-18T03:25:30;96567.72;;;16.58;59.85
78206;BME280;67480;48.920;12.880;2023-09-18T03:27:56;96568.28;;;16.54;59.91
78206;BME280;67480;48.920;12.880;2023-09-18T03:30:23;96572.75;;;16.59;59.87
78206;BME280;67480;48.920;12.880;2023-09-18T03:32:52;96572.75;;;16.59;59.99
78206;BME280;67480;48.920;12.880;2023-09-18T03:35:18;96567.91;;;16.61;59.77
78206;BME280;67480;48.920;12.880;2023-09-18T03:37:48;96563.91;;;16.64;59.77
78206;BME280;67480;48.920;12.880;2023-09-18T03:40:15;96555.41;;;16.62;59.55
78206;BME280;67480;48.920;12.880;2023-09-18T03:42:41;96545.22;;;16.69;59.43
78206;BME280;67480;48.920;12.880;2023-09-18T03:45:07;96540.19;;;16.67;59.54
78206;BME280;67480;48.920;12.880;2023-09-18T03:47:34;96543.66;;;16.68;59.48
78206;BME280;67480;48.920;12.880;2023-09-18T03:50:01;96531.44;;;16.67;59.59
78206;BME280;67480;48.920;12.880;2023-09-18T03:52:27;96522.97;;;16.65;59.83
78206;BME280;67480;48.920;12.880;2023-09-18T03:54:52;96519.44;;;16.69;59.50
78206;BME280;67480;48.920;12.880;2023-09-18T03:57:18;96513.91;;;16.66;59.70
78206;BME280;67480;48.920;12.880;2023-09-18T03:59:43;96506.44;;;16.68;59.73
78206;BME280;67480;48.920;12.880;2023-09-18T04:02:09;96518.13;;;16.67;59.59
78206;BME280;67480;48.920;12.880;2023-09-18T04:04:34;96522.59;;;16.71;59.49
78206;BME280;67480;48.920;12.880;2023-09-18T04:06:59;96519.94;;;16.71;59.47
78206;BME280;67480;48.920;12.880;2023-09-18T04:09:27;96502.69;;;16.69;59.63
78206;BME280;67480;48.920;12.880;2023-09-18T04:11:53;96507.31;;;16.63;59.81
78206;BME280;67480;48.920;12.880;2023-09-18T04:14:20;96514.50;;;16.63;59.73
78206;BME280;67480;48.920;12.880;2023-09-18T04:16:45;96508.38;;;16.62;59.93
78206;BME280;67480;48.920;12.880;2023-09-18T04:19:11;96504.44;;;16.60;60.25
78206;BME280;67480;48.920;12.880;2023-09-18T04:21:36;96503.84;;;16.63;60.28
78206;BME280;67480;48.920;12.880;2023-09-18T04:24:05;96493.75;;;16.65;60.09
78206;BME280;67480;48.920;12.880;2023-09-18T04:26:30;96489.28;;;16.60;60.33
78206;BME280;67480;48.920;12.880;2023-09-18T04:29:00;96477.34;;;16.58;60.21
78206;BME280;67480;48.920;12.880;2023-09-18T04:31:26;96477.06;;;16.59;60.63
78206;BME280;67480;48.920;12.880;2023-09-18T04:33:52;96469.94;;;16.54;60.36
78206;BME280;67480;48.920;12.880;2023-09-18T04:36:18;96488.63;;;16.49;60.78
78206;BME280;67480;48.920;12.880;2023-09-18T04:38:43;96497.69;;;16.48;61.27
78206;BME280;67480;48.920;12.880;2023-09-18T04:41:09;96478.69;;;16.36;61.80
78206;BME280;67480;48.920;12.880;2023-09-18T04:43:36;96479.84;;;16.30;61.80
78206;BME280;67480;48.920;12.880;2023-09-18T04:46:03;96499.53;;;16.29;62.35
78206;BME280;67480;48.920;12.880;2023-09-18T04:48:30;96489.28;;;16.17;62.30
78206;BME280;67480;48.920;12.880;2023-09-18T04:50:57;96483.25;;;16.12;62.51
78206;BME280;67480;48.920;12.880;2023-09-18T04:53:22;96472.69;;;16.06;62.71
78206;BME280;67480;48.920;12.880;2023-09-18T04:55:48;96477.78;;;16.03;63.13
78206;BME280;67480;48.920;12.880;2023-09-18T04:58:17;96469.63;;;15.94;62.98
78206;BME280;67480;48.920;12.880;2023-09-18T05:00:43;96475.00;;;15.89;63.19
78206;BME280;67480;48.920;12.880;2023-09-18T05:03:09;96479.28;;;15.85;63.34
78206;BME280;67480;48.920;12.880;2023-09-18T05:05:35;96483.25;;;15.87;63.46
78206;BME280;67480;48.920;12.880;2023-09-18T05:08:06;96490.69;;;15.85;63.63
78206;BME280;67480;48.920;12.880;2023-09-18T05:10:34;96494.66;;;15.88;63.80
78206;BME280;67480;48.920;12.880;2023-09-18T05:13:00;96493.81;;;15.93;63.59
78206;BME280;67480;48.920;12.880;2023-09-18T05:15:25;96492.78;;;15.88;63.45
78206;BME280;67480;48.920;12.880;2023-09-18T05:17:58;96486.53;;;15.79;64.05
78206;BME280;67480;48.920;12.880;2023-09-18T05:20:28;96484.66;;;15.80;64.20
78206;BME280;67480;48.920;12.880;2023-09-18T05:22:55;96489.13;;;15.84;64.32
78206;BME280;67480;48.920;12.880;2023-09-18T05:25:26;96475.91;;;15.79;64.33
78206;BME280;67480;48.920;12.880;2023-09-18T05:27:53;96466.88;;;15.80;64.41
78206;BME280;67480;48.920;12.880;2023-09-18T05:30:24;96473.19;;;15.84;64.32
78206;BME280;67480;48.920;12.880;2023-09-18T05:32:50;96476.06;;;15.88;64.39
78206;BME280;67480;48.920;12.880;2023-09-18T05:35:20;96469.88;;;15.98;64.13
78206;BME280;67480;48.920;12.880;2023-09-18T05:37:46;96461.13;;;15.97;63.98
78206;BME280;67480;48.920;12.880;2023-09-18T05:40:13;96465.75;;;16.05;63.91
78206;BME280;67480;48.920;12.880;2023-09-18T05:42:40;96450.13;;;16.04;63.93
78206;BME280;67480;48.920;12.880;2023-09-18T05:45:10;96462.41;;;16.19;63.53
78206;BME280;67480;48.920;12.880;2023-09-18T05:47:36;96452.88;;;16.18;63.60
78206;BME280;67480;48.920;12.880;2023-09-18T05:50:03;96448.84;;;16.25;63.16
78206;BME280;67480;48.920;12.880;2023-09-18T05:52:32;96442.66;;;16.30;63.50
78206;BME280;67480;48.920;12.880;2023-09-18T05:54:59;96433.53;;;16.36;63.17
78206;BME280;67480;48.920;12.880;2023-09-18T05:57:24;96422.41;;;16.34;63.09
78206;BME280;67480;48.920;12.880;2023-09-18T05:59:50;96437.72;;;16.42;63.27
78206;BME280;67480;48.920;12.880;2023-09-18T06:02:15;96428.66;;;16.43;63.29
78206;BME280;67480;48.920;12.880;2023-09-18T06:04:42;96441.56;;;16.50;62.54
78206;BME280;67480;48.920;12.880;2023-09-18T06:07:07;96450.63;;;16.49;63.08
78206;BME280;67480;48.920;12.880;2023-09-18T06:09:35;96455.44;;;16.47;64.36
78206;BME280;67480;48.920;12.880;2023-09-18T06:12:00;96448.34;;;16.42;64.72
78206;BME280;67480;48.920;12.880;2023-09-18T06:14:26;96447.84;;;16.40;64.39
78206;BME280;67480;48.920;12.880;2023-09-18T06:16:52;96449.34;;;16.46;64.34
78206;BME280;67480;48.920;12.880;2023-09-18T06:19:17;96438.19;;;16.44;64.23
78206;BME280;67480;48.920;12.880;2023-09-18T06:21:44;96438.13;;;16.49;63.89
78206;BME280;67480;48.920;12.880;2023-09-18T06:24:09;96429.56;;;16.52;64.73
78206;BME280;67480;48.920;12.880;2023-09-18T06:26:37;96421.03;;;16.56;64.85
78206;BME280;67480;48.920;12.880;2023-09-18T06:29:03;96404.03;;;16.57;63.84
78206;BME280;67480;48.920;12.880;2023-09-18T06:31:29;96414.28;;;16.63;63.01
78206;BME280;67480;48.920;12.880;2023-09-18T06:33:56;96402.56;;;16.64;62.16
78206;BME280;67480;48.920;12.880;2023-09-18T06:36:22;96410.75;;;16.68;62.10
78206;BME280;67480;48.920;12.880;2023-09-18T06:38:50;96414.91;;;16.74;62.37
78206;BME280;67480;48.920;12.880;2023-09-18T06:41:15;96409.78;;;16.77;61.98
78206;BME280;67480;48.920;12.880;2023-09-18T06:43:41;96404.47;;;16.77;61.99
78206;BME280;67480;48.920;12.880;2023-09-18T06:46:07;96422.69;;;16.84;62.22
78206;BME280;67480;48.920;12.880;2023-09-18T06:48:33;96423.28;;;16.81;62.35
78206;BME280;67480;48.920;12.880;2023-09-18T06:51:01;96437.88;;;16.84;62.34
78206;BME280;67480;48.920;12.880;2023-09-18T06:53:27;96440.75;;;16.87;62.13
78206;BME280;67480;48.920;12.880;2023-09-18T06:55:53;96432.47;;;16.89;62.44
78206;BME280;67480;48.920;12.880;2023-09-18T06:58:19;96447.56;;;16.93;62.27
78206;BME280;67480;48.920;12.880;2023-09-18T07:00:45;96451.00;;;16.94;62.74
78206;BME280;67480;48.920;12.880;2023-09-18T07:03:10;96444.41;;;16.91;62.64
78206;BME280;67480;48.920;12.880;2023-09-18T07:05:36;96441.16;;;16.94;62.48
78206;BME280;67480;48.920;12.880;2023-09-18T07:08:02;96437.22;;;16.92;62.70
78206;BME280;67480;48.920;12.880;2023-09-18T07:10:30;96443.53;;;16.96;62.51
78206;BME280;67480;48.920;12.880;2023-09-18T07:12:56;96450.44;;;16.97;62.42
78206;BME280;67480;48.920;12.880;2023-09-18T07:15:21;96455.16;;;17.00;62.86
78206;BME280;67480;48.920;12.880;2023-09-18T07:17:46;96449.66;;;16.96;62.62
78206;BME280;67480;48.920;12.880;2023-09-18T07:20:13;96454.38;;;16.99;62.72
78206;BME280;67480;48.920;12.880;2023-09-18T07:22:39;96460.69;;;17.04;62.59
78206;BME280;67480;48.920;12.880;2023-09-18T07:25:06;96453.78;;;17.03;62.89
78206;BME280;67480;48.920;12.880;2023-09-18T07:27:32;96453.22;;;17.06;62.70
78206;BME280;67480;48.920;12.880;2023-09-18T07:29:57;96451.66;;;17.05;62.76
78206;BME280;67480;48.920;12.880;2023-09-18T07:32:23;96457.16;;;17.08;62.58
78206;BME280;67480;48.920;12.880;2023-09-18T07:34:50;96468.00;;;17.12;62.21
78206;BME280;67480;48.920;12.880;2023-09-18T07:37:16;96465.06;;;17.13;62.84
78206;BME280;67480;48.920;12.880;2023-09-18T07:39:46;96463.78;;;17.11;62.47
78206;BME280;67480;48.920;12.880;2023-09-18T07:42:11;96459.44;;;17.15;62.59
78206;BME280;67480;48.920;12.880;2023-09-18T07:44:37;96461.06;;;17.16;62.94
78206;BME280;67480;48.920;12.880;2023-09-18T07:47:02;96458.97;;;17.13;63.06
78206;BME280;67480;48.920;12.880;2023-09-18T07:49:28;96452.03;;;17.12;63.27
78206;BME280;67480;48.920;12.880;2023-09-18T07:51:53;96454.66;;;17.17;63.41
78206;BME280;67480;48.920;12.880;2023-09-18T07:54:19;96459.69;;;17.18;63.19
78206;BME280;67480;48.920;12.880;2023-09-18T07:56:45;96468.47;;;17.19;62.75
78206;BME280;67480;48.920;12.880;2023-09-18T07:59:10;96468.47;;;17.19;63.31
78206;BME280;67480;48.920;12.880;2023-09-18T08:01:36;96474.19;;;17.26;62.45
78206;BME280;67480;48.920;12.880;2023-09-18T08:04:02;96461.97;;;17.25;63.20
78206;BME280;67480;48.920;12.880;2023-09-18T08:06:27;96458.00;;;17.23;62.89
78206;BME280;67480;48.920;12.880;2023-09-18T08:08:53;96460.09;;;17.26;62.86
78206;BME280;67480;48.920;12.880;2023-09-18T08:11:19;96465.13;;;17.27;62.77
78206;BME280;67480;48.920;12.880;2023-09-18T08:13:44;96456.66;;;17.25;63.09
78206;BME280;67480;48.920;12.880;2023-09-18T08:16:10;96468.19;;;17.34;62.88
78206;BME280;67480;48.920;12.880;2023-09-18T08:18:35;96480.91;;;17.37;63.32
78206;BME280;67480;48.920;12.880;2023-09-18T08:21:01;96471.63;;;17.35;62.45
78206;BME280;67480;48.920;12.880;2023-09-18T08:23:26;96472.13;;;17.37;62.92
78206;BME280;67480;48.920;12.880;2023-09-18T08:25:52;96462.59;;;17.36;62.95
78206;BME280;67480;48.920;12.880;2023-09-18T08:28:22;96471.25;;;17.41;63.06
78206;BME280;67480;48.920;12.880;2023-09-18T08:30:48;96479.75;;;17.43;62.83
78206;BME280;67480;48.920;12.880;2023-09-18T08:33:14;96485.63;;;17.40;63.20
78206;BME280;67480;48.920;12.880;2023-09-18T08:35:39;96493.53;;;17.46;62.55
78206;BME280;67480;48.920;12.880;2023-09-18T08:38:05;96485.88;;;17.44;63.13
78206;BME280;67480;48.920;12.880;2023-09-18T08:40:31;96484.78;;;17.45;63.23
78206;BME280;67480;48.920;12.880;2023-09-18T08:42:58;96489.31;;;17.45;62.61
78206;BME280;67480;48.920;12.880;2023-09-18T08:45:39;96502.22;;;17.51;62.87
78206;BME280;67480;48.920;12.880;2023-09-18T08:48:06;96500.25;;;17.57;63.20
78206;BME280;67480;48.920;12.880;2023-09-18T08:50:32;96487.25;;;17.55;63.14
78206;BME280;67480;48.920;12.880;2023-09-18T08:52:59;96481.63;;;17.57;63.16
78206;BME280;67480;48.920;12.880;2023-09-18T08:55:24;96476.81;;;17.59;62.47
78206;BME280;67480;48.920;12.880;2023-09-18T08:57:50;96468.53;;;17.60;63.47
78206;BME280;67480;48.920;12.880;2023-09-18T09:00:18;96468.53;;;17.60;63.65
78206;BME280;67480;48.920;12.880;2023-09-18T09:02:44;96455.50;;;17.59;63.37
78206;BME280;67480;48.920;12.880;2023-09-18T09:05:13;96470.31;;;17.65;63.49
78206;BME280;67480;48.920;12.880;2023-09-18T09:07:38;96475.81;;;17.69;63.22
78206;BME280;67480;48.920;12.880;2023-09-18T09:10:04;96471.91;;;17.66;63.03
78206;BME280;67480;48.920;12.880;2023-09-18T09:15:22;96477.31;;;17.75;62.90
78206;BME280;67480;48.920;12.880;2023-09-18T09:17:49;96467.75;;;17.74;63.25
78206;BME280;67480;48.920;12.880;2023-09-18T09:20:15;96475.44;;;17.75;63.43
78206;BME280;67480;48.920;12.880;2023-09-18T09:22:41;96473.28;;;17.77;63.46
78206;BME280;67480;48.920;12.880;2023-09-18T09:25:27;96464.97;;;17.79;63.52
78206;BME280;67480;48.920;12.880;2023-09-18T09:27:54;96472.56;;;17.85;63.68
78206;BME280;67480;48.920;12.880;2023-09-18T09:30:22;96449.78;;;17.79;63.48
78206;BME280;67480;48.920;12.880;2023-09-18T09:32:50;96450.28;;;17.81;63.72
78206;BME280;67480;48.920;12.880;2023-09-18T09:35:27;96454.75;;;17.86;63.51
78206;BME280;67480;48.920;12.880;2023-09-18T09:37:59;96470.31;;;17.93;63.54
78206;BME280;67480;48.920;12.880;2023-09-18T09:40:26;96457.59;;;17.90;63.31
78206;BME280;67480;48.920;12.880;2023-09-18T09:42:57;96461.53;;;17.92;63.76
78206;BME280;67480;48.920;12.880;2023-09-18T09:45:30;96463.88;;;17.94;63.56
78206;BME280;67480;48.920;12.880;2023-09-18T09:47:57;96470.50;;;17.96;63.45
78206;BME280;67480;48.920;12.880;2023-09-18T09:50:23;96470.72;;;18.00;63.43
78206;BME280;67480;48.920;12.880;2023-09-18T09:52:52;96472.81;;;18.03;63.47
78206;BME280;67480;48.920;12.880;2023-09-18T09:55:25;96478.00;;;18.08;63.71
78206;BME280;67480;48.920;12.880;2023-09-18T09:57:56;96466.38;;;18.04;63.62
78206;BME280;67480;48.920;12.880;2023-09-18T10:01:12;96467.16;;;18.04;63.69
78206;BME280;67480;48.920;12.880;2023-09-18T10:03:20;96456.22;;;18.06;63.71
78206;BME280;67480;48.920;12.880;2023-09-18T10:05:47;96465.38;;;18.14;64.10
78206;BME280;67480;48.920;12.880;2023-09-18T10:08:27;96460.88;;;18.14;63.89
78206;BME280;67480;48.920;12.880;2023-09-18T10:10:54;96456.81;;;18.17;63.69
78206;BME280;67480;48.920;12.880;2023-09-18T10:13:25;96452.56;;;18.16;63.74
78206;BME280;67480;48.920;12.880;2023-09-18T10:15:53;96458.28;;;18.23;63.64
78206;BME280;67480;48.920;12.880;2023-09-18T10:18:27;96457.78;;;18.21;63.76
78206;BME280;67480;48.920;12.880;2023-09-18T10:21:03;96459.34;;;18.22;63.57
78206;BME280;67480;48.920;12.880;2023-09-18T10:26:28;96466.97;;;18.28;63.37
78206;BME280;67480;48.920;12.880;2023-09-18T10:28:55;96458.97;;;18.28;63.66
78206;BME280;67480;48.920;12.880;2023-09-18T10:31:25;96463.19;;;18.29;63.49
78206;BME280;67480;48.920;12.880;2023-09-18T10:33:52;96469.81;;;18.32;63.62
78206;BME280;67480;48.920;12.880;2023-09-18T10:36:19;96477.97;;;18.36;63.50
78206;BME280;67480;48.920;12.880;2023-09-18T10:38:48;96470.31;;;18.34;63.23
78206;BME280;67480;48.920;12.880;2023-09-18T10:41:19;96472.06;;;18.39;63.30
78206;BME280;67480;48.920;12.880;2023-09-18T10:43:46;96472.06;;;18.39;63.54
78206;BME280;67480;48.920;12.880;2023-09-18T10:46:12;96480.25;;;18.42;63.54
78206;BME280;67480;48.920;12.880;2023-09-18T10:48:41;96465.94;;;18.38;63.54
78206;BME280;67480;48.920;12.880;2023-09-18T10:51:07;96463.16;;;18.43;63.67
78206;BME280;67480;48.920;12.880;2023-09-18T10:53:34;96462.88;;;18.45;63.49
78206;BME280;67480;48.920;12.880;2023-09-18T10:56:01;96462.75;;;18.50;63.31
78206;BME280;67480;48.920;12.880;2023-09-18T10:58:27;96469.66;;;18.51;63.76
78206;BME280;67480;48.920;12.880;2023-09-18T11:00:54;96454.28;;;18.48;63.36
78206;BME280;67480;48.920;12.880;2023-09-18T11:03:22;96466.41;;;18.54;63.19
78206;BME280;67480;48.920;12.880;2023-09-18T11:06:06;96448.94;;;18.48;63.44
78206;BME280;67480;48.920;12.880;2023-09-18T11:08:34;96459.19;;;18.54;63.43
78206;BME280;67480;48.920;12.880;2023-09-18T11:11:06;96456.22;;;18.56;63.56
78206;BME280;67480;48.920;12.880;2023-09-18T11:13:43;96449.31;;;18.55;63.23
78206;BME280;67480;48.920;12.880;2023-09-18T11:16:32;96455.63;;;18.59;63.42
78206;BME280;67480;48.920;12.880;2023-09-18T11:21:28;96456.41;;;18.60;63.46
78206;BME280;67480;48.920;12.880;2023-09-18T11:24:02;96458.75;;;18.61;63.47
78206;BME280;67480;48.920;12.880;2023-09-18T11:26:32;96457.69;;;18.62;63.51
78206;BME280;67480;48.920;12.880;2023-09-18T11:29:03;96460.34;;;18.62;63.12
78206;BME280;67480;48.920;12.880;2023-09-18T11:31:44;96470.72;;;18.64;63.23
78206;BME280;67480;48.920;12.880;2023-09-18T11:34:15;96488.47;;;18.68;63.10
78206;BME280;67480;48.920;12.880;2023-09-18T11:36:41;96468.81;;;18.64;63.04
78206;BME280;67480;48.920;12.880;2023-09-18T11:39:07;96470.59;;;18.69;63.53
78206;BME280;67480;48.920;12.880;2023-09-18T11:41:35;96477.22;;;18.71;63.26
78206;BME280;67480;48.920;12.880;2023-09-18T11:46:39;96475.94;;;18.69;63.18
78206;BME280;67480;48.920;12.880;2023-09-18T11:49:08;96486.66;;;18.77;63.48
78206;BME280;67480;48.920;12.880;2023-09-18T11:51:36;96485.56;;;18.78;63.43
78206;BME280;67480;48.920;12.880;2023-09-18T11:54:02;96482.44;;;18.76;63.18
78206;BME280;67480;48.920;12.880;2023-09-18T11:56:39;96500.00;;;18.77;63.15
78206;BME280;67480;48.920;12.880;2023-09-18T11:59:05;96496.53;;;18.77;63.34
78206;BME280;67480;48.920;12.880;2023-09-18T12:01:31;96486.38;;;18.79;63.05
78206;BME280;67480;48.920;12.880;2023-09-18T12:04:01;96503.06;;;18.85;63.52
78206;BME280;67480;48.920;12.880;2023-09-18T12:06:27;96505.72;;;18.85;63.10
78206;BME280;67480;48.920;12.880;2023-09-18T12:08:53;96501.94;;;18.86;62.88
78206;BME280;67480;48.920;12.880;2023-09-18T12:11:19;96503.53;;;18.87;63.27
78206;BME280;67480;48.920;12.880;2023-09-18T12:13:52;96506.78;;;18.84;62.94
78206;BME280;67480;48.920;12.880;2023-09-18T12:16:18;96503.06;;;18.85;62.93
78206;BME280;67480;48.920;12.880;2023-09-18T12:18:48;96502.94;;;18.90;63.04
78206;BME280;67480;48.920;12.880;2023-09-18T12:21:14;96506.09;;;18.92;63.03
78206;BME280;67480;48.920;12.880;2023-09-18T12:23:41;96488.34;;;18.87;63.15
78206;BME280;67480;48.920;12.880;2023-09-18T12:26:14;96489.13;;;18.88;63.09
78206;BME280;67480;48.920;12.880;2023-09-18T12:28:41;96477.84;;;18.91;63.01
78206;BME280;67480;48.920;12.880;2023-09-18T12:31:14;96485.25;;;18.94;63.09
78206;BME280;67480;48.920;12.880;2023-09-18T12:33:41;96490.28;;;18.95;63.07
78206;BME280;67480;48.920;12.880;2023-09-18T12:36:09;96487.13;;;18.93;62.92
78206;BME280;67480;48.920;12.880;2023-09-18T12:38:36;96497.03;;;18.93;62.98
78206;BME280;67480;48.920;12.880;2023-09-18T12:41:03;96494.81;;;18.95;63.17
78206;BME280;67480;48.920;12.880;2023-09-18T12:43:41;96494.22;;;18.98;63.36
78206;BME280;67480;48.920;12.880;2023-09-18T12:46:08;96494.81;;;18.95;62.94
78206;BME280;67480;48.920;12.880;2023-09-18T12:48:38;96501.31;;;19.03;63.23
78206;BME280;67480;48.920;12.880;2023-09-18T12:51:07;96497.38;;;19.00;63.04
78206;BME280;67480;48.920;12.880;2023-09-18T12:53:33;96494.22;;;18.98;63.36
78206;BME280;67480;48.920;12.880;2023-09-18T12:56:07;96496.59;;;18.99;62.90
78206;BME280;67480;48.920;12.880;2023-09-18T12:58:34;96494.41;;;19.02;63.16
78206;BME280;67480;48.920;12.880;2023-09-18T13:01:04;96490.47;;;18.99;63.02
78206;BME280;67480;48.920;12.880;2023-09-18T13:03:42;96517.81;;;19.05;63.03
78206;BME280;67480;48.920;12.880;2023-09-18T13:06:09;96521.09;;;19.02;62.83